createdAt,value
2018-12-11T00:01:56.284Z,10.07
2018-12-11T00:04:22.239Z,10.00
2018-12-11T00:06:48.251Z,10.27
2018-12-11T00:09:14.210Z,10.12
2018-12-11T00:11:40.249Z,10.08
2018-12-11T00:14:06.201Z,10.08
2018-12-11T00:16:32.209Z,10.23
2018-12-11T00:18:58.162Z,9.93
2018-12-11T00:21:24.152Z,9.72
2018-12-11T00:23:50.213Z,9.89
2018-12-11T00:26:16.175Z,10.54
2018-12-11T00:28:42.161Z,10.12
2018-12-11T00:31:08.154Z,10.33
2018-12-11T00:33:34.171Z,10.49
2018-12-11T00:36:00.135Z,10.37
2018-12-11T00:38:26.163Z,10.35
2018-12-11T00:40:52.145Z,10.64
2018-12-11T00:43:18.164Z,10.40
2018-12-11T00:45:44.132Z,10.33
2018-12-11T00:48:10.134Z,10.04
2018-12-11T00:50:36.168Z,9.98
2018-12-11T00:53:02.198Z,10.25
2018-12-11T00:55:28.223Z,10.08
2018-12-11T00:57:54.309Z,10.25
2018-12-11T01:00:20.394Z,10.26
2018-12-11T01:02:46.452Z,10.15
2018-12-11T01:05:12.540Z,9.65
2018-12-11T01:07:38.500Z,9.97
2018-12-11T01:10:06.710Z,10.36
2018-12-11T01:12:32.708Z,10.00
2018-12-11T01:14:58.668Z,9.98
2018-12-11T01:17:24.683Z,9.86
2018-12-11T01:19:50.637Z,10.20
2018-12-11T01:22:16.642Z,10.36
2018-12-11T01:24:42.612Z,10.15
2018-12-11T01:27:08.608Z,10.23
2018-12-11T01:29:34.580Z,9.86
2018-12-11T01:32:07.675Z,9.98
2018-12-11T01:34:33.642Z,9.89
2018-12-11T01:36:59.596Z,9.92
2018-12-11T01:39:25.584Z,10.38
2018-12-11T01:41:51.560Z,9.90
2018-12-11T01:44:17.573Z,9.91
2018-12-11T01:46:43.531Z,9.93
2018-12-11T01:49:09.489Z,10.09
2018-12-11T01:51:35.505Z,9.59
2018-12-11T01:54:01.465Z,9.90
2018-12-11T01:56:27.451Z,9.93
2018-12-11T01:58:53.471Z,9.80
2018-12-11T02:01:19.435Z,10.17
2018-12-11T02:03:45.457Z,10.24
2018-12-11T02:06:11.451Z,10.28
2018-12-11T02:08:37.410Z,9.85
2018-12-11T02:11:03.438Z,9.77
2018-12-11T02:13:29.428Z,9.80
2018-12-11T02:15:55.430Z,10.20
2018-12-11T02:18:21.427Z,9.81
2018-12-11T02:20:47.436Z,9.99
2018-12-11T02:23:13.413Z,9.99
2018-12-11T02:25:39.413Z,9.64
2018-12-11T02:28:05.496Z,10.02
2018-12-11T02:30:31.480Z,9.79
2018-12-11T02:32:57.482Z,10.11
2018-12-11T02:35:23.447Z,9.73
2018-12-11T02:37:49.455Z,9.63
2018-12-11T02:40:15.479Z,9.85
2018-12-11T02:42:41.499Z,9.61
2018-12-11T02:45:07.477Z,10.08
2018-12-11T02:47:33.476Z,9.86
2018-12-11T02:49:59.462Z,9.86
2018-12-11T02:52:25.449Z,10.03
2018-12-11T02:54:51.453Z,10.07
2018-12-11T02:57:17.440Z,9.75
2018-12-11T02:59:44.512Z,9.83
2018-12-11T03:02:10.601Z,9.52
2018-12-11T03:04:41.589Z,9.37
2018-12-11T03:07:07.943Z,9.99
2018-12-11T03:09:33.899Z,9.91
2018-12-11T03:11:59.938Z,10.16
2018-12-11T03:14:25.908Z,9.98
2018-12-11T03:16:51.918Z,9.76
2018-12-11T03:19:17.892Z,10.08
2018-12-11T03:21:43.888Z,9.33
2018-12-11T03:24:09.870Z,9.66
2018-12-11T03:26:35.873Z,10.21
2018-12-11T03:29:01.827Z,10.05
2018-12-11T03:31:27.843Z,9.98
2018-12-11T03:33:53.903Z,9.84
2018-12-11T03:36:19.967Z,10.02
2018-12-11T03:38:45.963Z,10.04
2018-12-11T03:41:11.957Z,10.21
2018-12-11T03:43:37.955Z,9.76
2018-12-11T03:46:03.989Z,9.68
2018-12-11T03:48:30.061Z,10.03
2018-12-11T03:50:56.151Z,9.13
2018-12-11T03:53:22.149Z,9.98
2018-12-11T03:55:48.154Z,9.81
2018-12-11T03:58:14.805Z,9.50
2018-12-11T04:00:40.808Z,9.56
2018-12-11T04:03:06.818Z,10.12
2018-12-11T04:05:32.801Z,10.12
2018-12-11T04:07:58.843Z,9.84
2018-12-11T04:10:24.805Z,9.83
2018-12-11T04:12:50.808Z,9.74
2018-12-11T04:15:16.892Z,10.21
2018-12-11T04:17:42.888Z,9.95
2018-12-11T04:20:08.861Z,9.68
2018-12-11T04:22:34.889Z,9.56
2018-12-11T04:25:03.074Z,9.74
2018-12-11T04:27:29.137Z,10.09
2018-12-11T04:29:55.084Z,9.91
2018-12-11T04:32:21.097Z,9.69
2018-12-11T04:34:47.063Z,9.79
2018-12-11T04:37:13.036Z,9.89
2018-12-11T04:39:39.015Z,9.97
2018-12-11T04:42:05.010Z,9.88
2018-12-11T04:44:31.003Z,9.86
2018-12-11T04:46:56.980Z,9.89
2018-12-11T04:49:23.771Z,9.58
2018-12-11T04:51:49.737Z,8.16
2018-12-11T04:54:21.045Z,7.89
2018-12-11T04:56:47.279Z,7.54
2018-12-11T04:59:13.363Z,7.56
2018-12-11T05:01:39.416Z,7.45
2018-12-11T05:04:05.413Z,7.60
2018-12-11T05:06:31.391Z,7.80
2018-12-11T05:08:57.391Z,7.66
2018-12-11T05:11:23.365Z,7.72
2018-12-11T05:13:49.363Z,7.80
2018-12-11T05:16:15.355Z,7.77
2018-12-11T05:18:41.337Z,7.83
2018-12-11T05:21:07.321Z,7.70
2018-12-11T05:23:33.343Z,7.33
2018-12-11T05:25:59.313Z,7.38
2018-12-11T05:28:25.311Z,7.69
2018-12-11T05:30:51.317Z,7.66
2018-12-11T05:33:17.343Z,7.65
2018-12-11T05:35:43.290Z,7.85
2018-12-11T05:38:09.276Z,7.68
2018-12-11T05:40:35.264Z,7.70
2018-12-11T05:43:01.288Z,7.76
2018-12-11T05:45:27.288Z,7.64
2018-12-11T05:47:53.231Z,7.58
2018-12-11T05:50:19.223Z,7.45
2018-12-11T05:52:45.182Z,7.53
2018-12-11T05:55:11.179Z,7.84
2018-12-11T05:57:37.143Z,7.55
2018-12-11T06:00:06.828Z,7.47
2018-12-11T06:02:39.659Z,7.63
2018-12-11T06:05:07.001Z,7.58
2018-12-11T06:07:33.011Z,7.66
2018-12-11T06:09:58.975Z,7.51
2018-12-11T06:12:25.632Z,7.40
2018-12-11T06:14:51.636Z,7.60
2018-12-11T06:17:17.617Z,7.58
2018-12-11T06:19:43.614Z,7.44
2018-12-11T06:22:09.597Z,7.46
2018-12-11T06:24:35.640Z,7.46
2018-12-11T06:27:01.592Z,7.67
2018-12-11T06:29:27.602Z,7.64
2018-12-11T06:31:53.630Z,7.13
2018-12-11T06:34:19.628Z,7.50
2018-12-11T06:36:45.589Z,7.57
2018-12-11T06:39:11.585Z,7.60
2018-12-11T06:41:37.617Z,7.64
2018-12-11T06:44:03.680Z,7.47
2018-12-11T06:46:29.761Z,7.60
2018-12-11T06:48:55.733Z,7.49
2018-12-11T06:51:21.735Z,7.69
2018-12-11T06:53:47.760Z,7.52
2018-12-11T06:56:13.816Z,7.82
2018-12-11T06:58:40.848Z,7.50
2018-12-11T07:01:07.037Z,7.46
2018-12-11T07:03:39.972Z,7.30
2018-12-11T07:06:06.044Z,7.33
2018-12-11T07:08:32.122Z,7.65
2018-12-11T07:10:58.081Z,7.65
2018-12-11T07:13:24.092Z,7.48
2018-12-11T07:15:50.098Z,7.57
2018-12-11T07:18:16.092Z,7.21
2018-12-11T07:20:42.104Z,7.46
2018-12-11T07:23:08.062Z,7.24
2018-12-11T07:25:34.055Z,7.40
2018-12-11T07:28:00.016Z,7.47
2018-12-11T07:30:26.033Z,7.30
2018-12-11T07:32:51.972Z,7.35
2018-12-11T07:35:18.088Z,7.02
2018-12-11T07:37:44.068Z,7.09
2018-12-11T07:40:10.104Z,7.19
2018-12-11T07:42:36.102Z,7.10
2018-12-11T07:45:02.210Z,7.19
2018-12-11T07:47:35.233Z,7.08
2018-12-11T07:50:01.238Z,7.17
2018-12-11T07:52:27.845Z,7.36
2018-12-11T07:54:55.318Z,7.14
2018-12-11T07:57:21.439Z,7.30
2018-12-11T07:59:47.442Z,7.07
2018-12-11T08:02:13.411Z,7.38
2018-12-11T08:04:39.410Z,7.37
2018-12-11T08:07:05.406Z,7.60
2018-12-11T08:09:31.388Z,7.67
2018-12-11T08:11:57.393Z,7.39
2018-12-11T08:14:23.356Z,7.57
2018-12-11T08:16:49.350Z,7.67
2018-12-11T08:19:15.338Z,7.56
2018-12-11T08:21:41.365Z,7.57
2018-12-11T08:24:07.336Z,7.55
2018-12-11T08:26:33.399Z,7.82
2018-12-11T08:28:59.361Z,7.35
2018-12-11T08:31:25.371Z,7.53
2018-12-11T08:33:58.245Z,7.76
2018-12-11T08:36:24.268Z,7.74
2018-12-11T08:38:50.234Z,7.66
2018-12-11T08:41:16.222Z,7.90
2018-12-11T08:43:42.224Z,7.39
2018-12-11T08:46:08.197Z,7.75
2018-12-11T08:48:34.238Z,7.91
2018-12-11T08:51:00.307Z,7.64
2018-12-11T08:53:26.953Z,7.69
2018-12-11T08:55:53.147Z,7.81
2018-12-11T08:58:19.211Z,8.06
2018-12-11T09:00:45.282Z,7.80
2018-12-11T09:03:11.234Z,7.87
2018-12-11T09:05:37.240Z,7.71
2018-12-11T09:08:03.216Z,8.00
2018-12-11T09:10:29.234Z,8.01
2018-12-11T09:12:55.620Z,7.70
2018-12-11T09:15:21.612Z,8.00
2018-12-11T09:17:47.690Z,8.00
2018-12-11T09:20:13.664Z,8.00
2018-12-11T09:22:39.657Z,7.69
2018-12-11T09:25:05.864Z,7.92
2018-12-11T09:27:31.869Z,8.01
2018-12-11T09:29:57.828Z,8.02
2018-12-11T09:32:23.798Z,8.19
2018-12-11T09:34:49.790Z,8.17
2018-12-11T09:37:15.761Z,8.00
2018-12-11T09:39:41.845Z,8.03
2018-12-11T09:42:07.908Z,8.15
2018-12-11T09:44:33.861Z,7.82
2018-12-11T09:46:59.837Z,7.94
2018-12-11T09:49:25.816Z,8.03
2018-12-11T09:51:51.908Z,8.37
2018-12-11T09:54:17.876Z,8.54
2018-12-11T09:56:43.941Z,8.68
2018-12-11T09:59:09.916Z,8.39
2018-12-11T10:01:35.903Z,8.46
2018-12-11T10:04:01.937Z,8.28
2018-12-11T10:06:27.923Z,8.43
2018-12-11T10:08:55.973Z,8.46
2018-12-11T10:11:21.947Z,8.41
2018-12-11T10:13:47.938Z,8.44
2018-12-11T10:16:13.939Z,8.64
2018-12-11T10:18:39.881Z,8.82
2018-12-11T10:21:05.896Z,8.55
2018-12-11T10:23:32.312Z,8.44
2018-12-11T10:25:58.317Z,8.73
2018-12-11T10:28:24.262Z,8.65
2018-12-11T10:30:50.247Z,8.88
2018-12-11T10:33:16.200Z,8.93
2018-12-11T10:35:42.202Z,8.92
2018-12-11T10:38:08.168Z,8.86
2018-12-11T10:40:34.323Z,8.86
2018-12-11T10:43:00.298Z,8.90
2018-12-11T10:45:26.292Z,8.80
2018-12-11T10:47:52.270Z,8.68
2018-12-11T10:50:18.288Z,8.79
2018-12-11T10:52:44.254Z,9.06
2018-12-11T10:55:10.266Z,8.98
2018-12-11T10:57:36.234Z,9.17
2018-12-11T11:00:03.984Z,9.09
2018-12-11T11:02:29.964Z,9.10
2018-12-11T11:04:56.032Z,9.49
2018-12-11T11:07:25.344Z,9.52
2018-12-11T11:09:51.582Z,9.51
2018-12-11T11:12:17.696Z,9.57
2018-12-11T11:14:43.755Z,9.89
2018-12-11T11:17:09.830Z,9.54
2018-12-11T11:19:35.801Z,9.46
2018-12-11T11:22:01.817Z,9.41
2018-12-11T11:24:27.796Z,9.48
2018-12-11T11:26:53.796Z,9.64
2018-12-11T11:29:19.902Z,9.32
2018-12-11T11:31:45.943Z,9.60
2018-12-11T11:34:11.912Z,9.43
2018-12-11T11:36:37.904Z,9.22
2018-12-11T11:39:05.722Z,9.39
2018-12-11T11:41:31.722Z,9.38
2018-12-11T11:43:57.928Z,9.29
2018-12-11T11:46:24.143Z,9.47
2018-12-11T11:48:50.135Z,9.49
2018-12-11T11:51:16.092Z,9.44
2018-12-11T11:53:42.084Z,9.64
2018-12-11T11:56:08.052Z,9.45
2018-12-11T11:58:34.060Z,9.91
2018-12-11T12:01:00.038Z,9.70
2018-12-11T12:03:26.007Z,9.82
2018-12-11T12:05:52.014Z,9.71
2018-12-11T12:08:18.011Z,9.58
2018-12-11T12:10:43.970Z,9.59
2018-12-11T12:13:10.013Z,9.79
2018-12-11T12:15:35.989Z,9.90
2018-12-11T12:18:01.997Z,9.91
2018-12-11T12:20:27.987Z,9.81
2018-12-11T12:22:53.988Z,9.67
2018-12-11T12:25:19.950Z,9.67
2018-12-11T12:27:52.794Z,9.80
2018-12-11T12:30:20.440Z,9.61
2018-12-11T12:32:46.447Z,9.72
2018-12-11T12:35:12.464Z,9.88
2018-12-11T12:37:38.418Z,9.75
2018-12-11T12:40:04.868Z,9.69
2018-12-11T12:42:31.076Z,9.62
2018-12-11T12:44:57.080Z,9.68
2018-12-11T12:47:23.057Z,9.78
2018-12-11T12:49:50.681Z,9.93
2018-12-11T12:52:17.152Z,9.94
2018-12-11T12:54:43.167Z,9.46
2018-12-11T12:57:09.226Z,9.69
2018-12-11T12:59:35.270Z,9.67
2018-12-11T13:02:01.338Z,9.76
2018-12-11T13:04:27.310Z,9.62
2018-12-11T13:06:53.370Z,9.69
2018-12-11T13:09:19.336Z,9.55
2018-12-11T13:11:45.362Z,9.74
2018-12-11T13:14:11.354Z,9.56
2018-12-11T13:16:37.332Z,9.52
2018-12-11T13:19:03.436Z,9.56
2018-12-11T13:21:29.469Z,9.33
2018-12-11T13:23:55.444Z,9.49
2018-12-11T13:26:21.410Z,9.66
2018-12-11T13:28:47.420Z,9.74
2018-12-11T13:31:13.384Z,9.74
2018-12-11T13:33:39.373Z,9.66
2018-12-11T13:36:05.338Z,9.75
2018-12-11T13:38:31.470Z,9.70
2018-12-11T13:40:57.756Z,9.63
2018-12-11T13:43:23.791Z,9.80
2018-12-11T13:45:49.758Z,9.73
2018-12-11T13:48:15.870Z,9.51
2018-12-11T13:50:42.259Z,9.60
2018-12-11T13:53:08.276Z,9.60
2018-12-11T13:55:34.283Z,9.71
2018-12-11T13:58:00.232Z,9.75
2018-12-11T14:00:26.241Z,9.72
2018-12-11T14:02:52.200Z,9.61
2018-12-11T14:05:18.205Z,9.65
2018-12-11T14:07:44.185Z,9.66
2018-12-11T14:10:10.182Z,9.63
2018-12-11T14:12:36.229Z,9.69
2018-12-11T14:15:02.329Z,9.65
2018-12-11T14:17:28.331Z,9.63
2018-12-11T14:19:54.357Z,9.75
2018-12-11T14:22:20.359Z,9.61
2018-12-11T14:24:46.530Z,9.62
2018-12-11T14:27:12.683Z,9.51
2018-12-11T14:29:38.683Z,9.56
2018-12-11T14:32:04.965Z,9.73
2018-12-11T14:34:31.088Z,9.73
2018-12-11T14:36:57.217Z,9.80
2018-12-11T14:39:23.191Z,9.64
2018-12-11T14:41:49.206Z,9.76
2018-12-11T14:44:15.163Z,9.72
2018-12-11T14:46:41.226Z,9.62
2018-12-11T14:49:07.200Z,9.65
2018-12-11T14:51:33.195Z,9.76
2018-12-11T14:53:59.288Z,9.81
2018-12-11T14:56:25.288Z,9.60
2018-12-11T14:58:51.238Z,9.51
2018-12-11T15:01:24.230Z,9.53
2018-12-11T15:03:50.512Z,9.61
2018-12-11T15:06:16.590Z,9.65
2018-12-11T15:08:42.593Z,9.59
2018-12-11T15:11:08.574Z,9.71
2018-12-11T15:13:34.577Z,9.49
2018-12-11T15:16:00.556Z,9.40
2018-12-11T15:18:26.561Z,9.55
2018-12-11T15:20:52.621Z,9.40
2018-12-11T15:23:18.635Z,9.61
2018-12-11T15:25:44.607Z,9.44
2018-12-11T15:28:10.608Z,9.54
2018-12-11T15:30:36.576Z,9.59
2018-12-11T15:33:02.586Z,9.74
2018-12-11T15:35:28.568Z,9.70
2018-12-11T15:37:54.558Z,9.69
2018-12-11T15:40:20.549Z,9.61
2018-12-11T15:42:46.581Z,9.55
2018-12-11T15:45:12.570Z,9.53
2018-12-11T15:47:38.647Z,9.49
2018-12-11T15:50:06.015Z,9.49
2018-12-11T15:52:32.013Z,9.37
2018-12-11T15:54:57.985Z,9.34
2018-12-11T15:57:23.953Z,9.49
2018-12-11T15:59:49.947Z,9.66
2018-12-11T16:02:16.015Z,9.56
2018-12-11T16:04:42.015Z,9.34
2018-12-11T16:07:07.997Z,9.19
2018-12-11T16:09:36.243Z,9.41
2018-12-11T16:12:03.244Z,9.37
2018-12-11T16:14:29.220Z,9.34
2018-12-11T16:16:55.211Z,9.27
2018-12-11T16:19:21.332Z,9.22
2018-12-11T16:21:47.288Z,9.41
2018-12-11T16:24:13.295Z,9.46
2018-12-11T16:26:39.366Z,9.27
2018-12-11T16:29:05.353Z,9.43
2018-12-11T16:31:31.338Z,9.39
2018-12-11T16:33:57.325Z,9.29
2018-12-11T16:36:23.292Z,9.26
2018-12-11T16:38:49.300Z,9.36
2018-12-11T16:41:15.293Z,9.28
2018-12-11T16:43:41.355Z,9.33
2018-12-11T16:46:07.312Z,9.53
2018-12-11T16:48:33.303Z,9.36
2018-12-11T16:50:59.264Z,9.32
2018-12-11T16:53:25.290Z,9.16
2018-12-11T16:55:51.373Z,9.02
2018-12-11T16:58:17.471Z,9.03
2018-12-11T17:00:43.545Z,8.90
2018-12-11T17:03:09.632Z,9.06
2018-12-11T17:05:35.624Z,9.10
2018-12-11T17:08:01.602Z,9.13
2018-12-11T17:10:27.664Z,9.15
2018-12-11T17:12:53.657Z,8.95
2018-12-11T17:15:20.196Z,9.06
2018-12-11T17:17:46.320Z,9.03
2018-12-11T17:20:12.349Z,9.07
2018-12-11T17:22:38.331Z,9.18
2018-12-11T17:25:04.454Z,9.30
2018-12-11T17:27:30.435Z,9.28
2018-12-11T17:29:56.459Z,9.21
2018-12-11T17:32:22.419Z,9.14
2018-12-11T17:34:48.415Z,9.25
2018-12-11T17:37:14.411Z,9.36
2018-12-11T17:39:40.431Z,9.30
2018-12-11T17:42:06.465Z,9.19
2018-12-11T17:44:32.464Z,9.15
2018-12-11T17:46:58.785Z,9.13
2018-12-11T17:49:24.767Z,9.14
2018-12-11T17:51:50.828Z,9.33
2018-12-11T17:54:16.853Z,9.10
2018-12-11T17:56:43.152Z,8.66
2018-12-11T17:59:09.687Z,9.03
2018-12-11T18:01:36.316Z,9.30
2018-12-11T18:04:02.364Z,9.35
2018-12-11T18:06:28.380Z,9.44
2018-12-11T18:08:54.384Z,9.43
2018-12-11T18:11:20.392Z,9.22
2018-12-11T18:13:46.568Z,9.30
2018-12-11T18:16:12.655Z,9.32
2018-12-11T18:18:38.631Z,9.32
2018-12-11T18:21:04.681Z,9.30
2018-12-11T18:23:30.685Z,9.27
2018-12-11T18:25:56.721Z,9.32
2018-12-11T18:28:22.693Z,9.17
2018-12-11T18:30:48.651Z,9.07
2018-12-11T18:33:15.141Z,9.03
2018-12-11T18:35:41.136Z,8.97
2018-12-11T18:38:07.169Z,8.88
2018-12-11T18:40:33.134Z,8.93
2018-12-11T18:42:59.236Z,8.82
2018-12-11T18:45:25.189Z,8.75
2018-12-11T18:47:51.232Z,9.08
2018-12-11T18:50:21.375Z,9.05
2018-12-11T18:52:45.204Z,8.92
2018-12-11T18:55:11.269Z,9.11
2018-12-11T18:57:37.323Z,8.97
2018-12-11T19:00:05.078Z,8.89
2018-12-11T19:02:31.088Z,8.95
2018-12-11T19:04:57.050Z,9.11
2018-12-11T19:07:23.124Z,9.11
2018-12-11T19:09:49.116Z,9.11
2018-12-11T19:12:15.149Z,8.93
2018-12-11T19:14:41.960Z,8.81
2018-12-11T19:17:07.976Z,8.78
2018-12-11T19:19:33.942Z,9.11
2018-12-11T19:21:59.961Z,9.16
2018-12-11T19:24:25.984Z,8.49
2018-12-11T19:26:52.006Z,8.77
2018-12-11T19:29:18.010Z,8.83
2018-12-11T19:31:44.000Z,8.60
2018-12-11T19:34:10.237Z,8.77
2018-12-11T19:36:36.223Z,8.57
2018-12-11T19:39:04.830Z,8.76
2018-12-11T19:41:30.831Z,8.67
2018-12-11T19:43:56.828Z,8.41
2018-12-11T19:46:23.344Z,8.39
2018-12-11T19:48:49.351Z,8.60
2018-12-11T19:51:15.386Z,8.61
2018-12-11T19:53:41.420Z,8.63
2018-12-11T19:56:07.378Z,8.66
2018-12-11T19:58:34.012Z,8.57
2018-12-11T20:01:00.176Z,8.59
2018-12-11T20:03:26.645Z,8.72
2018-12-11T20:05:52.660Z,8.54
2018-12-11T20:08:18.703Z,8.50
2018-12-11T20:10:46.780Z,8.71
2018-12-11T20:13:12.821Z,8.55
2018-12-11T20:15:45.843Z,8.69
2018-12-11T20:18:12.942Z,8.77
2018-12-11T20:20:39.267Z,8.70
2018-12-11T20:23:05.294Z,8.76
2018-12-11T20:25:41.649Z,8.62
2018-12-11T20:28:07.712Z,8.53
2018-12-11T20:30:33.701Z,8.61
2018-12-11T20:32:59.730Z,8.52
2018-12-11T20:35:25.738Z,8.44
2018-12-11T20:37:51.773Z,8.56
2018-12-11T20:40:17.766Z,8.77
2018-12-11T20:42:43.898Z,8.57
2018-12-11T20:45:09.918Z,8.49
2018-12-11T20:47:35.948Z,8.49
2018-12-11T20:50:01.932Z,8.49
2018-12-11T20:52:27.950Z,8.34
2018-12-11T20:54:54.058Z,8.46
2018-12-11T20:57:20.146Z,8.40
2018-12-11T20:59:46.230Z,8.58
2018-12-11T21:02:12.316Z,8.70
2018-12-11T21:04:38.318Z,8.47
2018-12-11T21:07:04.304Z,8.60
2018-12-11T21:09:30.369Z,8.45
2018-12-11T21:11:56.571Z,8.45
2018-12-11T21:14:22.573Z,8.54
2018-12-11T21:16:48.656Z,8.69
2018-12-11T21:19:14.910Z,8.65
2018-12-11T21:21:41.218Z,8.63
2018-12-11T21:24:07.222Z,8.56
2018-12-11T21:26:33.203Z,8.51
2018-12-11T21:28:59.224Z,8.66
2018-12-11T21:31:25.223Z,8.85
2018-12-11T21:33:51.249Z,8.64
2018-12-11T21:36:17.301Z,8.44
2018-12-11T21:38:43.288Z,8.52
2018-12-11T21:41:09.262Z,8.58
2018-12-11T21:43:35.290Z,8.58
2018-12-11T21:46:01.295Z,8.59
2018-12-11T21:48:27.362Z,8.68
2018-12-11T21:50:53.376Z,8.66
2018-12-11T21:53:19.367Z,8.47
2018-12-11T21:55:45.460Z,8.65
2018-12-11T21:58:11.599Z,8.55
2018-12-11T22:00:44.717Z,8.59
2018-12-11T22:03:11.130Z,8.49
2018-12-11T22:05:37.154Z,8.40
2018-12-11T22:08:03.145Z,8.39
2018-12-11T22:10:29.746Z,8.38
2018-12-11T22:12:55.761Z,8.60
2018-12-11T22:15:21.743Z,8.57
2018-12-11T22:17:47.743Z,8.58
2018-12-11T22:20:13.728Z,8.30
2018-12-11T22:22:39.755Z,8.33
2018-12-11T22:25:05.759Z,8.26
2018-12-11T22:27:31.771Z,8.25
2018-12-11T22:29:58.049Z,8.27
2018-12-11T22:32:24.005Z,8.37
2018-12-11T22:34:50.013Z,8.33
2018-12-11T22:37:16.001Z,8.39
2018-12-11T22:39:42.173Z,8.34
2018-12-11T22:42:08.170Z,8.31
2018-12-11T22:44:34.849Z,8.18
2018-12-11T22:47:00.816Z,8.38
2018-12-11T22:49:26.765Z,8.41
2018-12-11T22:51:52.769Z,8.30
2018-12-11T22:54:19.068Z,8.00
2018-12-11T22:56:45.070Z,8.27
2018-12-11T22:59:11.032Z,8.26
2018-12-11T23:01:37.057Z,8.30
2018-12-11T23:04:03.066Z,8.26
2018-12-11T23:06:29.023Z,8.33
2018-12-11T23:08:55.119Z,8.25
2018-12-11T23:11:21.072Z,8.17
2018-12-11T23:13:47.077Z,8.23
2018-12-11T23:16:13.057Z,8.39
2018-12-11T23:18:46.069Z,8.31
2018-12-11T23:21:12.054Z,8.41
2018-12-11T23:23:38.173Z,8.24
2018-12-11T23:26:04.181Z,8.23
2018-12-11T23:28:30.193Z,8.29
2018-12-11T23:30:56.175Z,8.29
2018-12-11T23:33:22.164Z,8.23
2018-12-11T23:35:48.131Z,8.17
2018-12-11T23:38:14.106Z,8.20
2018-12-11T23:40:40.192Z,7.99
2018-12-11T23:43:06.164Z,8.15
2018-12-11T23:45:32.170Z,8.33
2018-12-11T23:47:58.161Z,8.08
2018-12-11T23:50:24.153Z,8.08
2018-12-11T23:52:50.128Z,8.14
2018-12-11T23:55:16.110Z,8.15
2018-12-11T23:57:42.075Z,8.20
